sensor_id;sensor_type;location;lat;lon;timestamp;P1;durP1;ratioP1;P2;durP2;ratioP2
14007;SDS011;61651;45.508;12.232;2023-12-20T00:01:31;81.40;;;73.27;;
14007;SDS011;61651;45.508;12.232;2023-12-20T00:04:34;80.60;;;72.33;;
14007;SDS011;61651;45.508;12.232;2023-12-20T00:07:36;87.33;;;78.17;;
14007;SDS011;61651;45.508;12.232;2023-12-20T00:10:38;87.73;;;77.60;;
14007;SDS011;61651;45.508;12.232;2023-12-20T00:13:40;86.53;;;77.43;;
14007;SDS011;61651;45.508;12.232;2023-12-20T00:16:42;90.20;;;80.80;;
14007;SDS011;61651;45.508;12.232;2023-12-20T00:19:46;87.57;;;78.37;;
14007;SDS011;61651;45.508;12.232;2023-12-20T00:22:48;86.27;;;77.37;;
14007;SDS011;61651;45.508;12.232;2023-12-20T00:25:50;91.60;;;82.20;;
14007;SDS011;61651;45.508;12.232;2023-12-20T00:28:52;88.33;;;79.17;;
14007;SDS011;61651;45.508;12.232;2023-12-20T00:31:54;88.77;;;79.13;;
14007;SDS011;61651;45.508;12.232;2023-12-20T00:34:57;88.23;;;79.00;;
14007;SDS011;61651;45.508;12.232;2023-12-20T00:37:59;82.97;;;74.47;;
14007;SDS011;61651;45.508;12.232;2023-12-20T00:41:02;84.50;;;75.87;;
14007;SDS011;61651;45.508;12.232;2023-12-20T00:44:04;82.20;;;73.57;;
14007;SDS011;61651;45.508;12.232;2023-12-20T00:47:06;83.57;;;74.77;;
14007;SDS011;61651;45.508;12.232;2023-12-20T00:50:10;85.57;;;77.03;;
14007;SDS011;61651;45.508;12.232;2023-12-20T00:53:11;84.23;;;75.57;;
14007;SDS011;61651;45.508;12.232;2023-12-20T00:56:13;84.60;;;76.03;;
14007;SDS011;61651;45.508;12.232;2023-12-20T00:59:16;92.33;;;82.43;;
14007;SDS011;61651;45.508;12.232;2023-12-20T01:02:18;86.23;;;77.17;;
14007;SDS011;61651;45.508;12.232;2023-12-20T01:05:22;85.33;;;76.40;;
14007;SDS011;61651;45.508;12.232;2023-12-20T01:08:24;85.50;;;76.33;;
14007;SDS011;61651;45.508;12.232;2023-12-20T01:11:26;84.13;;;75.30;;
14007;SDS011;61651;45.508;12.232;2023-12-20T01:14:28;86.37;;;77.37;;
14007;SDS011;61651;45.508;12.232;2023-12-20T01:17:30;87.70;;;78.57;;
14007;SDS011;61651;45.508;12.232;2023-12-20T01:20:33;86.47;;;77.20;;
14007;SDS011;61651;45.508;12.232;2023-12-20T01:23:35;84.70;;;75.83;;
14007;SDS011;61651;45.508;12.232;2023-12-20T01:26:37;85.67;;;76.43;;
14007;SDS011;61651;45.508;12.232;2023-12-20T01:29:39;85.77;;;76.87;;
14007;SDS011;61651;45.508;12.232;2023-12-20T01:32:41;87.53;;;78.60;;
14007;SDS011;61651;45.508;12.232;2023-12-20T01:35:44;85.63;;;77.00;;
14007;SDS011;61651;45.508;12.232;2023-12-20T01:38:46;85.43;;;76.57;;
14007;SDS011;61651;45.508;12.232;2023-12-20T01:41:48;85.27;;;76.13;;
14007;SDS011;61651;45.508;12.232;2023-12-20T01:44:50;85.23;;;76.47;;
14007;SDS011;61651;45.508;12.232;2023-12-20T01:47:52;84.90;;;76.10;;
14007;SDS011;61651;45.508;12.232;2023-12-20T01:50:56;88.90;;;79.23;;
14007;SDS011;61651;45.508;12.232;2023-12-20T01:53:58;89.83;;;80.60;;
14007;SDS011;61651;45.508;12.232;2023-12-20T01:57:01;88.23;;;79.07;;
14007;SDS011;61651;45.508;12.232;2023-12-20T02:00:05;89.10;;;80.03;;
14007;SDS011;61651;45.508;12.232;2023-12-20T02:03:09;91.27;;;81.80;;
14007;SDS011;61651;45.508;12.232;2023-12-20T02:06:13;84.77;;;76.20;;
14007;SDS011;61651;45.508;12.232;2023-12-20T02:09:15;87.83;;;78.83;;
14007;SDS011;61651;45.508;12.232;2023-12-20T02:12:18;87.70;;;78.37;;
14007;SDS011;61651;45.508;12.232;2023-12-20T02:15:20;82.87;;;74.33;;
14007;SDS011;61651;45.508;12.232;2023-12-20T02:18:22;86.23;;;77.03;;
14007;SDS011;61651;45.508;12.232;2023-12-20T02:21:31;82.03;;;73.57;;
14007;SDS011;61651;45.508;12.232;2023-12-20T02:24:34;82.77;;;73.87;;
14007;SDS011;61651;45.508;12.232;2023-12-20T02:27:36;78.07;;;70.13;;
14007;SDS011;61651;45.508;12.232;2023-12-20T02:30:38;80.40;;;72.03;;
14007;SDS011;61651;45.508;12.232;2023-12-20T02:33:40;81.83;;;73.10;;
14007;SDS011;61651;45.508;12.232;2023-12-20T02:36:44;78.40;;;70.40;;
14007;SDS011;61651;45.508;12.232;2023-12-20T02:39:46;77.87;;;69.47;;
14007;SDS011;61651;45.508;12.232;2023-12-20T02:42:48;80.40;;;71.77;;
14007;SDS011;61651;45.508;12.232;2023-12-20T02:45:50;84.13;;;75.50;;
14007;SDS011;61651;45.508;12.232;2023-12-20T02:48:52;79.07;;;70.73;;
14007;SDS011;61651;45.508;12.232;2023-12-20T02:51:55;78.60;;;70.40;;
14007;SDS011;61651;45.508;12.232;2023-12-20T02:54:57;74.00;;;66.17;;
14007;SDS011;61651;45.508;12.232;2023-12-20T02:57:59;72.60;;;65.00;;
14007;SDS011;61651;45.508;12.232;2023-12-20T03:01:01;76.43;;;68.53;;
14007;SDS011;61651;45.508;12.232;2023-12-20T03:04:04;71.03;;;63.87;;
14007;SDS011;61651;45.508;12.232;2023-12-20T03:07:07;72.00;;;64.50;;
14007;SDS011;61651;45.508;12.232;2023-12-20T03:10:09;71.97;;;64.33;;
14007;SDS011;61651;45.508;12.232;2023-12-20T03:13:11;74.00;;;66.20;;
14007;SDS011;61651;45.508;12.232;2023-12-20T03:16:13;73.33;;;65.70;;
14007;SDS011;61651;45.508;12.232;2023-12-20T03:19:17;68.33;;;61.17;;
14007;SDS011;61651;45.508;12.232;2023-12-20T03:22:21;69.27;;;62.17;;
14007;SDS011;61651;45.508;12.232;2023-12-20T03:25:23;66.27;;;59.63;;
14007;SDS011;61651;45.508;12.232;2023-12-20T03:28:26;65.23;;;58.57;;
14007;SDS011;61651;45.508;12.232;2023-12-20T03:31:29;63.40;;;56.67;;
14007;SDS011;61651;45.508;12.232;2023-12-20T03:34:30;63.37;;;56.87;;
14007;SDS011;61651;45.508;12.232;2023-12-20T03:37:34;59.33;;;53.03;;
14007;SDS011;61651;45.508;12.232;2023-12-20T03:40:36;59.43;;;53.30;;
14007;SDS011;61651;45.508;12.232;2023-12-20T03:43:38;53.87;;;48.27;;
14007;SDS011;61651;45.508;12.232;2023-12-20T03:46:40;54.93;;;48.67;;
14007;SDS011;61651;45.508;12.232;2023-12-20T03:49:42;52.87;;;47.47;;
14007;SDS011;61651;45.508;12.232;2023-12-20T03:52:45;52.43;;;47.03;;
14007;SDS011;61651;45.508;12.232;2023-12-20T03:55:47;53.17;;;47.60;;
14007;SDS011;61651;45.508;12.232;2023-12-20T03:58:49;54.07;;;48.60;;
14007;SDS011;61651;45.508;12.232;2023-12-20T04:01:51;54.70;;;48.60;;
14007;SDS011;61651;45.508;12.232;2023-12-20T04:04:53;53.43;;;47.83;;
14007;SDS011;61651;45.508;12.232;2023-12-20T04:07:57;55.93;;;50.13;;
14007;SDS011;61651;45.508;12.232;2023-12-20T04:11:01;54.13;;;48.57;;
14007;SDS011;61651;45.508;12.232;2023-12-20T04:14:03;55.03;;;49.33;;
14007;SDS011;61651;45.508;12.232;2023-12-20T04:17:05;53.10;;;47.37;;
14007;SDS011;61651;45.508;12.232;2023-12-20T04:20:08;50.43;;;45.03;;
14007;SDS011;61651;45.508;12.232;2023-12-20T04:23:12;50.87;;;45.40;;
14007;SDS011;61651;45.508;12.232;2023-12-20T04:26:14;48.00;;;43.03;;
14007;SDS011;61651;45.508;12.232;2023-12-20T04:29:16;46.63;;;40.63;;
14007;SDS011;61651;45.508;12.232;2023-12-20T04:32:18;45.40;;;40.57;;
14007;SDS011;61651;45.508;12.232;2023-12-20T04:35:20;45.90;;;40.20;;
14007;SDS011;61651;45.508;12.232;2023-12-20T04:38:24;47.83;;;41.63;;
14007;SDS011;61651;45.508;12.232;2023-12-20T04:41:26;44.27;;;39.50;;
14007;SDS011;61651;45.508;12.232;2023-12-20T04:44:28;42.53;;;38.03;;
14007;SDS011;61651;45.508;12.232;2023-12-20T04:47:30;43.60;;;39.03;;
14007;SDS011;61651;45.508;12.232;2023-12-20T04:50:32;41.17;;;36.87;;
14007;SDS011;61651;45.508;12.232;2023-12-20T04:53:35;42.40;;;38.03;;
14007;SDS011;61651;45.508;12.232;2023-12-20T04:56:37;42.40;;;37.90;;
14007;SDS011;61651;45.508;12.232;2023-12-20T04:59:39;43.87;;;39.27;;
14007;SDS011;61651;45.508;12.232;2023-12-20T05:02:41;40.57;;;36.50;;
14007;SDS011;61651;45.508;12.232;2023-12-20T05:05:43;44.40;;;38.77;;
14007;SDS011;61651;45.508;12.232;2023-12-20T05:08:47;39.70;;;35.60;;
14007;SDS011;61651;45.508;12.232;2023-12-20T05:11:49;41.30;;;36.70;;
14007;SDS011;61651;45.508;12.232;2023-12-20T05:14:51;39.40;;;35.30;;
14007;SDS011;61651;45.508;12.232;2023-12-20T05:17:54;37.93;;;33.93;;
14007;SDS011;61651;45.508;12.232;2023-12-20T05:20:56;39.27;;;35.27;;
14007;SDS011;61651;45.508;12.232;2023-12-20T05:23:59;37.63;;;33.60;;
14007;SDS011;61651;45.508;12.232;2023-12-20T05:27:01;36.27;;;32.57;;
14007;SDS011;61651;45.508;12.232;2023-12-20T05:30:04;36.37;;;32.53;;
14007;SDS011;61651;45.508;12.232;2023-12-20T05:33:07;36.43;;;32.13;;
14007;SDS011;61651;45.508;12.232;2023-12-20T05:36:09;38.87;;;31.33;;
14007;SDS011;61651;45.508;12.232;2023-12-20T05:39:15;34.00;;;30.53;;
14007;SDS011;61651;45.508;12.232;2023-12-20T05:42:17;33.67;;;29.20;;
14007;SDS011;61651;45.508;12.232;2023-12-20T05:45:19;32.57;;;29.33;;
14007;SDS011;61651;45.508;12.232;2023-12-20T05:48:21;31.97;;;28.67;;
14007;SDS011;61651;45.508;12.232;2023-12-20T05:51:23;31.87;;;28.53;;
14007;SDS011;61651;45.508;12.232;2023-12-20T05:54:27;32.67;;;29.13;;
14007;SDS011;61651;45.508;12.232;2023-12-20T05:57:29;32.20;;;28.30;;
14007;SDS011;61651;45.508;12.232;2023-12-20T06:00:31;29.77;;;26.53;;
14007;SDS011;61651;45.508;12.232;2023-12-20T06:03:33;31.20;;;27.83;;
14007;SDS011;61651;45.508;12.232;2023-12-20T06:06:40;32.50;;;29.03;;
14007;SDS011;61651;45.508;12.232;2023-12-20T06:09:44;31.40;;;26.87;;
14007;SDS011;61651;45.508;12.232;2023-12-20T06:12:46;29.60;;;26.30;;
14007;SDS011;61651;45.508;12.232;2023-12-20T06:15:50;29.00;;;25.70;;
14007;SDS011;61651;45.508;12.232;2023-12-20T06:18:52;31.80;;;25.27;;
14007;SDS011;61651;45.508;12.232;2023-12-20T06:21:54;27.97;;;24.13;;
14007;SDS011;61651;45.508;12.232;2023-12-20T06:24:58;29.07;;;23.30;;
14007;SDS011;61651;45.508;12.232;2023-12-20T06:28:00;25.53;;;22.83;;
14007;SDS011;61651;45.508;12.232;2023-12-20T06:31:02;25.53;;;22.53;;
14007;SDS011;61651;45.508;12.232;2023-12-20T06:34:04;24.97;;;22.27;;
14007;SDS011;61651;45.508;12.232;2023-12-20T06:37:06;27.00;;;23.57;;
14007;SDS011;61651;45.508;12.232;2023-12-20T06:40:10;25.73;;;22.90;;
14007;SDS011;61651;45.508;12.232;2023-12-20T06:43:13;27.70;;;22.47;;
14007;SDS011;61651;45.508;12.232;2023-12-20T06:46:15;24.13;;;21.53;;
14007;SDS011;61651;45.508;12.232;2023-12-20T06:49:17;23.53;;;21.03;;
14007;SDS011;61651;45.508;12.232;2023-12-20T06:52:19;24.33;;;21.87;;
14007;SDS011;61651;45.508;12.232;2023-12-20T06:55:23;26.53;;;20.67;;
14007;SDS011;61651;45.508;12.232;2023-12-20T06:58:25;22.77;;;20.40;;
14007;SDS011;61651;45.508;12.232;2023-12-20T07:01:27;24.20;;;21.33;;
14007;SDS011;61651;45.508;12.232;2023-12-20T07:04:29;24.07;;;21.53;;
14007;SDS011;61651;45.508;12.232;2023-12-20T07:07:31;22.87;;;20.57;;
14007;SDS011;61651;45.508;12.232;2023-12-20T07:10:34;23.40;;;21.00;;
14007;SDS011;61651;45.508;12.232;2023-12-20T07:13:36;22.47;;;20.07;;
14007;SDS011;61651;45.508;12.232;2023-12-20T07:16:38;21.97;;;19.63;;
14007;SDS011;61651;45.508;12.232;2023-12-20T07:19:40;20.90;;;18.70;;
14007;SDS011;61651;45.508;12.232;2023-12-20T07:22:42;21.70;;;19.43;;
14007;SDS011;61651;45.508;12.232;2023-12-20T07:25:46;21.03;;;18.80;;
14007;SDS011;61651;45.508;12.232;2023-12-20T07:28:48;22.33;;;18.70;;
14007;SDS011;61651;45.508;12.232;2023-12-20T07:31:50;20.40;;;18.30;;
14007;SDS011;61651;45.508;12.232;2023-12-20T07:34:53;22.27;;;19.93;;
14007;SDS011;61651;45.508;12.232;2023-12-20T07:37:55;22.37;;;19.90;;
14007;SDS011;61651;45.508;12.232;2023-12-20T07:41:00;22.67;;;20.03;;
14007;SDS011;61651;45.508;12.232;2023-12-20T07:44:02;23.77;;;19.33;;
14007;SDS011;61651;45.508;12.232;2023-12-20T07:47:05;20.20;;;18.20;;
14007;SDS011;61651;45.508;12.232;2023-12-20T07:50:07;19.80;;;17.60;;
14007;SDS011;61651;45.508;12.232;2023-12-20T07:53:10;20.57;;;18.37;;
14007;SDS011;61651;45.508;12.232;2023-12-20T07:56:17;20.17;;;17.53;;
14007;SDS011;61651;45.508;12.232;2023-12-20T07:59:20;19.07;;;17.03;;
14007;SDS011;61651;45.508;12.232;2023-12-20T08:02:22;18.67;;;16.50;;
14007;SDS011;61651;45.508;12.232;2023-12-20T08:05:24;19.30;;;16.87;;
14007;SDS011;61651;45.508;12.232;2023-12-20T08:08:26;19.30;;;17.40;;
14007;SDS011;61651;45.508;12.232;2023-12-20T08:11:29;18.70;;;16.90;;
14007;SDS011;61651;45.508;12.232;2023-12-20T08:14:31;18.57;;;16.60;;
14007;SDS011;61651;45.508;12.232;2023-12-20T08:17:33;18.70;;;16.87;;
14007;SDS011;61651;45.508;12.232;2023-12-20T08:20:35;19.13;;;16.97;;
14007;SDS011;61651;45.508;12.232;2023-12-20T08:23:37;18.87;;;17.07;;
14007;SDS011;61651;45.508;12.232;2023-12-20T08:26:41;20.50;;;16.70;;
14007;SDS011;61651;45.508;12.232;2023-12-20T08:29:43;19.83;;;16.80;;
14007;SDS011;61651;45.508;12.232;2023-12-20T08:32:45;69.20;;;47.53;;
14007;SDS011;61651;45.508;12.232;2023-12-20T08:35:47;26.23;;;23.43;;
14007;SDS011;61651;45.508;12.232;2023-12-20T08:38:49;167.00;;;95.77;;
14007;SDS011;61651;45.508;12.232;2023-12-20T08:41:53;38.30;;;29.03;;
14007;SDS011;61651;45.508;12.232;2023-12-20T08:44:55;27.83;;;21.23;;
14007;SDS011;61651;45.508;12.232;2023-12-20T08:47:57;21.10;;;18.80;;
14007;SDS011;61651;45.508;12.232;2023-12-20T08:51:00;20.03;;;17.80;;
14007;SDS011;61651;45.508;12.232;2023-12-20T08:54:02;19.20;;;17.00;;
14007;SDS011;61651;45.508;12.232;2023-12-20T08:57:09;16.73;;;15.00;;
14007;SDS011;61651;45.508;12.232;2023-12-20T09:00:11;16.67;;;14.97;;
14007;SDS011;61651;45.508;12.232;2023-12-20T09:03:14;17.33;;;15.50;;
14007;SDS011;61651;45.508;12.232;2023-12-20T09:06:16;15.90;;;14.00;;
14007;SDS011;61651;45.508;12.232;2023-12-20T09:09:18;14.50;;;12.97;;
14007;SDS011;61651;45.508;12.232;2023-12-20T09:12:22;16.37;;;14.20;;
14007;SDS011;61651;45.508;12.232;2023-12-20T09:15:24;15.00;;;13.00;;
14007;SDS011;61651;45.508;12.232;2023-12-20T09:18:27;14.23;;;12.57;;
14007;SDS011;61651;45.508;12.232;2023-12-20T09:21:29;15.37;;;13.23;;
14007;SDS011;61651;45.508;12.232;2023-12-20T09:24:31;14.17;;;12.67;;
14007;SDS011;61651;45.508;12.232;2023-12-20T09:27:34;13.87;;;12.53;;
14007;SDS011;61651;45.508;12.232;2023-12-20T09:30:36;15.03;;;12.50;;
14007;SDS011;61651;45.508;12.232;2023-12-20T09:33:40;16.70;;;12.87;;
14007;SDS011;61651;45.508;12.232;2023-12-20T09:36:42;15.00;;;13.40;;
14007;SDS011;61651;45.508;12.232;2023-12-20T09:39:46;14.57;;;13.03;;
14007;SDS011;61651;45.508;12.232;2023-12-20T09:42:51;16.07;;;13.30;;
14007;SDS011;61651;45.508;12.232;2023-12-20T09:45:59;15.33;;;13.00;;
14007;SDS011;61651;45.508;12.232;2023-12-20T09:49:03;15.03;;;13.37;;
14007;SDS011;61651;45.508;12.232;2023-12-20T09:52:06;14.47;;;12.83;;
14007;SDS011;61651;45.508;12.232;2023-12-20T09:55:10;15.73;;;13.03;;
14007;SDS011;61651;45.508;12.232;2023-12-20T09:58:15;15.90;;;13.33;;
14007;SDS011;61651;45.508;12.232;2023-12-20T10:01:17;14.57;;;13.13;;
14007;SDS011;61651;45.508;12.232;2023-12-20T10:04:20;15.50;;;13.73;;
14007;SDS011;61651;45.508;12.232;2023-12-20T10:07:22;19.73;;;15.80;;
14007;SDS011;61651;45.508;12.232;2023-12-20T10:10:24;21.23;;;15.50;;
14007;SDS011;61651;45.508;12.232;2023-12-20T10:13:28;16.50;;;14.77;;
14007;SDS011;61651;45.508;12.232;2023-12-20T10:16:30;15.77;;;12.60;;
14007;SDS011;61651;45.508;12.232;2023-12-20T10:19:32;15.00;;;11.97;;
14007;SDS011;61651;45.508;12.232;2023-12-20T10:22:35;17.27;;;13.03;;
14007;SDS011;61651;45.508;12.232;2023-12-20T10:25:38;13.70;;;12.30;;
14007;SDS011;61651;45.508;12.232;2023-12-20T10:28:43;14.27;;;12.00;;
14007;SDS011;61651;45.508;12.232;2023-12-20T10:31:45;14.30;;;12.73;;
14007;SDS011;61651;45.508;12.232;2023-12-20T10:34:47;16.47;;;13.40;;
14007;SDS011;61651;45.508;12.232;2023-12-20T10:37:49;13.73;;;12.20;;
14007;SDS011;61651;45.508;12.232;2023-12-20T10:40:57;14.40;;;12.87;;
14007;SDS011;61651;45.508;12.232;2023-12-20T10:44:01;15.93;;;13.37;;
14007;SDS011;61651;45.508;12.232;2023-12-20T10:47:04;15.53;;;13.63;;
14007;SDS011;61651;45.508;12.232;2023-12-20T10:50:08;15.83;;;12.90;;
14007;SDS011;61651;45.508;12.232;2023-12-20T10:53:10;17.40;;;13.77;;
14007;SDS011;61651;45.508;12.232;2023-12-20T10:56:15;14.93;;;13.10;;
14007;SDS011;61651;45.508;12.232;2023-12-20T10:59:20;16.43;;;13.97;;
14007;SDS011;61651;45.508;12.232;2023-12-20T11:02:23;14.77;;;13.27;;
14007;SDS011;61651;45.508;12.232;2023-12-20T11:05:28;16.20;;;14.43;;
14007;SDS011;61651;45.508;12.232;2023-12-20T11:08:38;16.90;;;14.47;;
14007;SDS011;61651;45.508;12.232;2023-12-20T11:11:50;15.53;;;13.93;;
14007;SDS011;61651;45.508;12.232;2023-12-20T11:15:01;14.70;;;13.20;;
14007;SDS011;61651;45.508;12.232;2023-12-20T11:18:05;16.53;;;13.80;;
14007;SDS011;61651;45.508;12.232;2023-12-20T11:21:07;15.10;;;13.17;;
14007;SDS011;61651;45.508;12.232;2023-12-20T11:24:09;18.57;;;13.67;;
14007;SDS011;61651;45.508;12.232;2023-12-20T11:27:12;16.23;;;13.90;;
14007;SDS011;61651;45.508;12.232;2023-12-20T11:30:16;15.80;;;14.03;;
14007;SDS011;61651;45.508;12.232;2023-12-20T11:33:21;14.67;;;13.23;;
14007;SDS011;61651;45.508;12.232;2023-12-20T11:36:24;16.03;;;13.73;;
14007;SDS011;61651;45.508;12.232;2023-12-20T11:39:27;15.93;;;13.20;;
14007;SDS011;61651;45.508;12.232;2023-12-20T11:42:32;16.10;;;14.27;;
14007;SDS011;61651;45.508;12.232;2023-12-20T11:45:36;15.87;;;14.27;;
14007;SDS011;61651;45.508;12.232;2023-12-20T11:48:38;16.57;;;14.60;;
14007;SDS011;61651;45.508;12.232;2023-12-20T11:51:41;16.57;;;14.27;;
14007;SDS011;61651;45.508;12.232;2023-12-20T11:54:43;17.40;;;15.60;;
14007;SDS011;61651;45.508;12.232;2023-12-20T11:57:45;16.10;;;14.40;;
14007;SDS011;61651;45.508;12.232;2023-12-20T12:00:49;16.73;;;14.93;;
14007;SDS011;61651;45.508;12.232;2023-12-20T12:04:01;18.90;;;15.27;;
14007;SDS011;61651;45.508;12.232;2023-12-20T12:07:04;18.73;;;15.67;;
14007;SDS011;61651;45.508;12.232;2023-12-20T12:10:06;18.80;;;16.07;;
14007;SDS011;61651;45.508;12.232;2023-12-20T12:13:09;17.23;;;14.40;;
14007;SDS011;61651;45.508;12.232;2023-12-20T12:16:12;17.40;;;15.13;;
14007;SDS011;61651;45.508;12.232;2023-12-20T12:19:21;20.23;;;15.87;;
14007;SDS011;61651;45.508;12.232;2023-12-20T12:22:23;17.57;;;15.70;;
14007;SDS011;61651;45.508;12.232;2023-12-20T12:25:28;20.27;;;15.97;;
14007;SDS011;61651;45.508;12.232;2023-12-20T12:28:31;18.13;;;16.23;;
14007;SDS011;61651;45.508;12.232;2023-12-20T12:31:34;17.90;;;14.90;;
14007;SDS011;61651;45.508;12.232;2023-12-20T12:34:38;17.20;;;15.37;;
14007;SDS011;61651;45.508;12.232;2023-12-20T12:37:41;17.57;;;15.83;;
14007;SDS011;61651;45.508;12.232;2023-12-20T12:40:43;18.20;;;16.37;;
14007;SDS011;61651;45.508;12.232;2023-12-20T12:43:45;18.27;;;16.37;;
14007;SDS011;61651;45.508;12.232;2023-12-20T12:46:49;17.40;;;15.57;;
14007;SDS011;61651;45.508;12.232;2023-12-20T12:49:51;19.70;;;16.33;;
14007;SDS011;61651;45.508;12.232;2023-12-20T12:52:54;18.37;;;16.27;;
14007;SDS011;61651;45.508;12.232;2023-12-20T12:55:56;19.10;;;16.33;;
14007;SDS011;61651;45.508;12.232;2023-12-20T12:58:58;18.33;;;16.37;;
14007;SDS011;61651;45.508;12.232;2023-12-20T13:02:01;18.40;;;16.50;;
14007;SDS011;61651;45.508;12.232;2023-12-20T13:05:04;20.43;;;17.07;;
14007;SDS011;61651;45.508;12.232;2023-12-20T13:08:06;20.13;;;17.03;;
14007;SDS011;61651;45.508;12.232;2023-12-20T13:11:09;19.63;;;17.30;;
14007;SDS011;61651;45.508;12.232;2023-12-20T13:14:11;18.90;;;16.63;;
14007;SDS011;61651;45.508;12.232;2023-12-20T13:17:16;19.07;;;17.00;;
14007;SDS011;61651;45.508;12.232;2023-12-20T13:20:19;20.77;;;17.37;;
14007;SDS011;61651;45.508;12.232;2023-12-20T13:23:22;24.37;;;21.77;;
14007;SDS011;61651;45.508;12.232;2023-12-20T13:26:24;26.83;;;24.00;;
14007;SDS011;61651;45.508;12.232;2023-12-20T13:29:26;31.10;;;27.80;;
14007;SDS011;61651;45.508;12.232;2023-12-20T13:32:29;25.13;;;22.43;;
14007;SDS011;61651;45.508;12.232;2023-12-20T13:35:31;23.30;;;20.57;;
14007;SDS011;61651;45.508;12.232;2023-12-20T13:38:33;22.60;;;20.13;;
14007;SDS011;61651;45.508;12.232;2023-12-20T13:41:35;23.77;;;20.83;;
14007;SDS011;61651;45.508;12.232;2023-12-20T13:44:37;23.93;;;21.33;;
14007;SDS011;61651;45.508;12.232;2023-12-20T13:47:41;24.07;;;21.27;;
14007;SDS011;61651;45.508;12.232;2023-12-20T13:50:43;19.87;;;17.77;;
14007;SDS011;61651;45.508;12.232;2023-12-20T13:53:45;24.77;;;19.43;;
14007;SDS011;61651;45.508;12.232;2023-12-20T13:56:48;22.57;;;20.23;;
14007;SDS011;61651;45.508;12.232;2023-12-20T13:59:50;23.57;;;20.27;;
14007;SDS011;61651;45.508;12.232;2023-12-20T14:02:53;33.27;;;28.87;;
14007;SDS011;61651;45.508;12.232;2023-12-20T14:05:56;31.47;;;27.30;;
14007;SDS011;61651;45.508;12.232;2023-12-20T14:08:58;23.23;;;20.73;;
14007;SDS011;61651;45.508;12.232;2023-12-20T14:12:01;23.70;;;19.60;;
14007;SDS011;61651;45.508;12.232;2023-12-20T14:15:03;22.27;;;19.90;;
14007;SDS011;61651;45.508;12.232;2023-12-20T14:18:10;24.33;;;21.73;;
14007;SDS011;61651;45.508;12.232;2023-12-20T14:21:15;23.00;;;20.40;;
14007;SDS011;61651;45.508;12.232;2023-12-20T14:24:17;25.10;;;21.17;;
14007;SDS011;61651;45.508;12.232;2023-12-20T14:27:19;24.97;;;21.90;;
14007;SDS011;61651;45.508;12.232;2023-12-20T14:30:24;26.80;;;23.87;;
14007;SDS011;61651;45.508;12.232;2023-12-20T14:33:28;27.67;;;24.67;;
14007;SDS011;61651;45.508;12.232;2023-12-20T14:36:30;36.33;;;28.80;;
14007;SDS011;61651;45.508;12.232;2023-12-20T14:39:32;33.20;;;26.87;;
14007;SDS011;61651;45.508;12.232;2023-12-20T14:42:34;27.73;;;24.73;;
14007;SDS011;61651;45.508;12.232;2023-12-20T14:45:37;40.47;;;31.37;;
14007;SDS011;61651;45.508;12.232;2023-12-20T14:48:40;40.47;;;35.17;;
14007;SDS011;61651;45.508;12.232;2023-12-20T14:51:43;34.93;;;30.27;;
14007;SDS011;61651;45.508;12.232;2023-12-20T14:54:47;28.60;;;25.57;;
14007;SDS011;61651;45.508;12.232;2023-12-20T14:57:49;32.03;;;26.33;;
14007;SDS011;61651;45.508;12.232;2023-12-20T15:00:51;31.87;;;25.80;;
14007;SDS011;61651;45.508;12.232;2023-12-20T15:03:55;29.27;;;24.80;;
14007;SDS011;61651;45.508;12.232;2023-12-20T15:06:57;30.23;;;26.73;;
14007;SDS011;61651;45.508;12.232;2023-12-20T15:10:00;37.70;;;28.53;;
14007;SDS011;61651;45.508;12.232;2023-12-20T15:13:02;29.63;;;26.13;;
14007;SDS011;61651;45.508;12.232;2023-12-20T15:16:05;30.20;;;26.57;;
14007;SDS011;61651;45.508;12.232;2023-12-20T15:19:09;29.10;;;25.90;;
14007;SDS011;61651;45.508;12.232;2023-12-20T15:22:11;31.80;;;28.03;;
14007;SDS011;61651;45.508;12.232;2023-12-20T15:25:13;34.03;;;29.40;;
14007;SDS011;61651;45.508;12.232;2023-12-20T15:28:21;30.83;;;27.00;;
14007;SDS011;61651;45.508;12.232;2023-12-20T15:31:23;31.83;;;28.43;;
14007;SDS011;61651;45.508;12.232;2023-12-20T15:34:28;30.07;;;26.40;;
14007;SDS011;61651;45.508;12.232;2023-12-20T15:37:30;30.47;;;26.70;;
14007;SDS011;61651;45.508;12.232;2023-12-20T15:40:32;34.07;;;28.90;;
14007;SDS011;61651;45.508;12.232;2023-12-20T15:43:34;48.03;;;39.70;;
14007;SDS011;61651;45.508;12.232;2023-12-20T15:46:37;38.47;;;30.73;;
14007;SDS011;61651;45.508;12.232;2023-12-20T15:49:41;35.53;;;31.43;;
14007;SDS011;61651;45.508;12.232;2023-12-20T15:52:43;44.73;;;37.70;;
14007;SDS011;61651;45.508;12.232;2023-12-20T15:55:45;41.83;;;34.07;;
14007;SDS011;61651;45.508;12.232;2023-12-20T15:58:47;40.80;;;33.67;;
14007;SDS011;61651;45.508;12.232;2023-12-20T16:01:51;34.57;;;30.53;;
14007;SDS011;61651;45.508;12.232;2023-12-20T16:04:55;30.93;;;27.63;;
14007;SDS011;61651;45.508;12.232;2023-12-20T16:07:57;31.37;;;26.50;;
14007;SDS011;61651;45.508;12.232;2023-12-20T16:10:59;36.97;;;29.07;;
14007;SDS011;61651;45.508;12.232;2023-12-20T16:14:01;33.93;;;30.23;;
14007;SDS011;61651;45.508;12.232;2023-12-20T16:17:03;33.80;;;29.50;;
14007;SDS011;61651;45.508;12.232;2023-12-20T16:20:08;36.97;;;30.80;;
14007;SDS011;61651;45.508;12.232;2023-12-20T16:23:10;38.17;;;30.37;;
14007;SDS011;61651;45.508;12.232;2023-12-20T16:26:12;38.27;;;31.30;;
14007;SDS011;61651;45.508;12.232;2023-12-20T16:29:14;36.30;;;31.60;;
14007;SDS011;61651;45.508;12.232;2023-12-20T16:32:16;38.03;;;31.47;;
14007;SDS011;61651;45.508;12.232;2023-12-20T16:35:19;42.47;;;34.20;;
14007;SDS011;61651;45.508;12.232;2023-12-20T16:38:21;36.57;;;32.13;;
14007;SDS011;61651;45.508;12.232;2023-12-20T16:41:23;40.03;;;34.33;;
14007;SDS011;61651;45.508;12.232;2023-12-20T16:44:25;40.63;;;35.43;;
14007;SDS011;61651;45.508;12.232;2023-12-20T16:47:28;41.00;;;35.97;;
14007;SDS011;61651;45.508;12.232;2023-12-20T16:50:31;41.50;;;36.40;;
14007;SDS011;61651;45.508;12.232;2023-12-20T16:53:33;44.90;;;40.10;;
14007;SDS011;61651;45.508;12.232;2023-12-20T16:56:35;46.97;;;41.53;;
14007;SDS011;61651;45.508;12.232;2023-12-20T16:59:39;45.33;;;38.50;;
14007;SDS011;61651;45.508;12.232;2023-12-20T17:02:43;42.23;;;36.83;;
14007;SDS011;61651;45.508;12.232;2023-12-20T17:05:46;43.87;;;38.73;;
14007;SDS011;61651;45.508;12.232;2023-12-20T17:08:48;42.80;;;36.03;;
14007;SDS011;61651;45.508;12.232;2023-12-20T17:11:51;42.43;;;36.57;;
14007;SDS011;61651;45.508;12.232;2023-12-20T17:14:53;39.53;;;35.27;;
14007;SDS011;61651;45.508;12.232;2023-12-20T17:17:55;40.97;;;35.80;;
14007;SDS011;61651;45.508;12.232;2023-12-20T17:20:58;36.97;;;32.13;;
14007;SDS011;61651;45.508;12.232;2023-12-20T17:24:00;39.43;;;34.17;;
14007;SDS011;61651;45.508;12.232;2023-12-20T17:27:03;37.33;;;33.13;;
14007;SDS011;61651;45.508;12.232;2023-12-20T17:30:06;36.10;;;32.33;;
14007;SDS011;61651;45.508;12.232;2023-12-20T17:33:09;47.10;;;41.93;;